Hyderabad, India
Current Conditions -  °F | °C
As of 12:40 PM on Wednesday 26 Nov 2014 (Local Time) from VOHS Reporting Station
Clear Clear  
Wind Chill: 82°   Ceiling: Unl
Heat Index: 82°   Visibility: 4mi
Dew Point: 39°   Wind: 12mph
Humidity: 21%   Direction: 30°NNE
Pressure: 29.91"   Gusts: NA
Location:  17.39°N, 78.49°E
Report Text: VOHS 260740Z 03010KT 350V090 6000 NSC 28/04 Q1013 NOSIG
Loading
Personal Weather Stations






























Interactive Weather Map New forecast layout! Learn more

10-Day Weather Forecast

Advertisements
Track Severe Weather on mobile